Terminal Aerodrome Forecast
Issued by NWS

Current Version | Previous Version | Text Only | Print | Product List | Glossary On
Versions: 1 2 3 4 5 6 7 8 9 10 11 12
000
FTUS43 KDMX 272330
TAFFOD
TAF
KFOD 272330Z 2800/2824 05007KT P6SM BKN080
     FM280300 VRB03KT P6SM BKN080
     FM281300 28011KT P6SM SCT250=

USA.gov is the U.S. government's official web portal to all federal, state and local government web resources and services.